sensor_id;sensor_type;location;lat;lon;timestamp;P1;durP1;ratioP1;P2;durP2;ratioP2
8423;SDS011;4249;49.072;9.770;2022-07-29T00:00:24;4.60;;;4.20;;
8423;SDS011;4249;49.072;9.770;2022-07-29T00:03:12;5.38;;;4.22;;
8423;SDS011;4249;49.072;9.770;2022-07-29T00:05:59;4.60;;;4.20;;
8423;SDS011;4249;49.072;9.770;2022-07-29T00:08:47;4.82;;;4.32;;
8423;SDS011;4249;49.072;9.770;2022-07-29T00:11:34;5.38;;;4.22;;
8423;SDS011;4249;49.072;9.770;2022-07-29T00:14:21;6.38;;;5.10;;
8423;SDS011;4249;49.072;9.770;2022-07-29T00:17:10;6.18;;;4.28;;
8423;SDS011;4249;49.072;9.770;2022-07-29T00:19:57;5.97;;;4.13;;
8423;SDS011;4249;49.072;9.770;2022-07-29T00:22:44;5.03;;;4.53;;
8423;SDS011;4249;49.072;9.770;2022-07-29T00:25:31;4.55;;;4.15;;
8423;SDS011;4249;49.072;9.770;2022-07-29T00:28:18;4.70;;;4.30;;
8423;SDS011;4249;49.072;9.770;2022-07-29T00:31:06;5.55;;;4.65;;
8423;SDS011;4249;49.072;9.770;2022-07-29T00:33:54;8.90;;;4.78;;
8423;SDS011;4249;49.072;9.770;2022-07-29T00:36:42;6.85;;;4.63;;
8423;SDS011;4249;49.072;9.770;2022-07-29T00:39:28;6.10;;;4.28;;
8423;SDS011;4249;49.072;9.770;2022-07-29T00:42:16;5.00;;;4.43;;
8423;SDS011;4249;49.072;9.770;2022-07-29T00:45:03;8.93;;;4.80;;
8423;SDS011;4249;49.072;9.770;2022-07-29T00:47:51;6.28;;;4.45;;
8423;SDS011;4249;49.072;9.770;2022-07-29T00:50:39;6.88;;;4.47;;
8423;SDS011;4249;49.072;9.770;2022-07-29T00:53:27;4.78;;;4.38;;
8423;SDS011;4249;49.072;9.770;2022-07-29T00:56:14;4.85;;;4.35;;
8423;SDS011;4249;49.072;9.770;2022-07-29T00:59:01;6.93;;;4.78;;
8423;SDS011;4249;49.072;9.770;2022-07-29T01:01:48;5.78;;;4.82;;
8423;SDS011;4249;49.072;9.770;2022-07-29T01:04:36;5.20;;;4.38;;
8423;SDS011;4249;49.072;9.770;2022-07-29T01:07:24;7.03;;;4.43;;
8423;SDS011;4249;49.072;9.770;2022-07-29T01:10:13;4.55;;;3.75;;
8423;SDS011;4249;49.072;9.770;2022-07-29T01:13:02;6.35;;;4.80;;
8423;SDS011;4249;49.072;9.770;2022-07-29T01:15:51;8.13;;;4.60;;
8423;SDS011;4249;49.072;9.770;2022-07-29T01:18:46;6.60;;;5.18;;
8423;SDS011;4249;49.072;9.770;2022-07-29T01:21:42;5.88;;;4.35;;
8423;SDS011;4249;49.072;9.770;2022-07-29T01:24:45;7.78;;;4.80;;
8423;SDS011;4249;49.072;9.770;2022-07-29T01:27:50;6.95;;;4.80;;
8423;SDS011;4249;49.072;9.770;2022-07-29T01:30:48;4.93;;;4.43;;
8423;SDS011;4249;49.072;9.770;2022-07-29T01:33:41;4.80;;;4.40;;
8423;SDS011;4249;49.072;9.770;2022-07-29T01:36:40;5.47;;;4.88;;
8423;SDS011;4249;49.072;9.770;2022-07-29T01:39:32;4.97;;;4.47;;
8423;SDS011;4249;49.072;9.770;2022-07-29T01:42:24;6.25;;;4.97;;
8423;SDS011;4249;49.072;9.770;2022-07-29T01:45:17;4.45;;;4.05;;
8423;SDS011;4249;49.072;9.770;2022-07-29T01:48:11;5.07;;;4.57;;
8423;SDS011;4249;49.072;9.770;2022-07-29T01:51:04;4.57;;;4.10;;
8423;SDS011;4249;49.072;9.770;2022-07-29T01:53:55;6.50;;;4.63;;
8423;SDS011;4249;49.072;9.770;2022-07-29T01:56:49;4.95;;;4.00;;
8423;SDS011;4249;49.072;9.770;2022-07-29T01:59:40;5.25;;;4.78;;
8423;SDS011;4249;49.072;9.770;2022-07-29T02:02:29;5.85;;;4.55;;
8423;SDS011;4249;49.072;9.770;2022-07-29T02:05:20;4.75;;;4.35;;
8423;SDS011;4249;49.072;9.770;2022-07-29T02:08:09;5.45;;;5.00;;
8423;SDS011;4249;49.072;9.770;2022-07-29T02:10:58;6.18;;;5.35;;
8423;SDS011;4249;49.072;9.770;2022-07-29T02:13:47;5.10;;;4.60;;
8423;SDS011;4249;49.072;9.770;2022-07-29T02:16:36;5.05;;;4.55;;
8423;SDS011;4249;49.072;9.770;2022-07-29T02:19:26;5.57;;;5.07;;
8423;SDS011;4249;49.072;9.770;2022-07-29T02:22:17;5.30;;;4.80;;
8423;SDS011;4249;49.072;9.770;2022-07-29T02:25:06;5.40;;;4.90;;
8423;SDS011;4249;49.072;9.770;2022-07-29T02:27:55;6.22;;;5.13;;
8423;SDS011;4249;49.072;9.770;2022-07-29T02:30:43;5.20;;;4.68;;
8423;SDS011;4249;49.072;9.770;2022-07-29T02:33:32;6.30;;;5.38;;
8423;SDS011;4249;49.072;9.770;2022-07-29T02:36:21;5.95;;;5.35;;
8423;SDS011;4249;49.072;9.770;2022-07-29T02:39:11;7.32;;;5.03;;
8423;SDS011;4249;49.072;9.770;2022-07-29T02:42:01;5.88;;;5.38;;
8423;SDS011;4249;49.072;9.770;2022-07-29T02:44:50;6.93;;;5.20;;
8423;SDS011;4249;49.072;9.770;2022-07-29T02:47:40;7.07;;;4.78;;
8423;SDS011;4249;49.072;9.770;2022-07-29T02:50:31;5.63;;;5.13;;
8423;SDS011;4249;49.072;9.770;2022-07-29T02:53:22;6.75;;;4.80;;
8423;SDS011;4249;49.072;9.770;2022-07-29T02:56:13;6.18;;;5.35;;
8423;SDS011;4249;49.072;9.770;2022-07-29T02:59:04;5.90;;;5.28;;
8423;SDS011;4249;49.072;9.770;2022-07-29T03:01:55;5.75;;;5.25;;
8423;SDS011;4249;49.072;9.770;2022-07-29T03:04:46;5.18;;;4.63;;
8423;SDS011;4249;49.072;9.770;2022-07-29T03:07:35;6.47;;;4.78;;
8423;SDS011;4249;49.072;9.770;2022-07-29T03:10:23;5.22;;;4.75;;
8423;SDS011;4249;49.072;9.770;2022-07-29T03:13:14;5.88;;;4.93;;
8423;SDS011;4249;49.072;9.770;2022-07-29T03:16:04;5.40;;;4.65;;
8423;SDS011;4249;49.072;9.770;2022-07-29T03:18:52;5.82;;;5.32;;
8423;SDS011;4249;49.072;9.770;2022-07-29T03:21:39;6.03;;;4.97;;
8423;SDS011;4249;49.072;9.770;2022-07-29T03:24:27;6.50;;;5.47;;
8423;SDS011;4249;49.072;9.770;2022-07-29T03:27:16;5.38;;;4.93;;
8423;SDS011;4249;49.072;9.770;2022-07-29T03:30:06;7.15;;;5.20;;
8423;SDS011;4249;49.072;9.770;2022-07-29T03:32:55;6.45;;;5.70;;
8423;SDS011;4249;49.072;9.770;2022-07-29T03:35:42;6.25;;;5.65;;
8423;SDS011;4249;49.072;9.770;2022-07-29T03:38:30;5.78;;;5.28;;
8423;SDS011;4249;49.072;9.770;2022-07-29T03:41:22;6.65;;;5.38;;
8423;SDS011;4249;49.072;9.770;2022-07-29T03:44:11;8.50;;;5.57;;
8423;SDS011;4249;49.072;9.770;2022-07-29T03:47:01;6.03;;;5.43;;
8423;SDS011;4249;49.072;9.770;2022-07-29T03:49:52;6.63;;;5.95;;
8423;SDS011;4249;49.072;9.770;2022-07-29T03:52:43;7.00;;;5.30;;
8423;SDS011;4249;49.072;9.770;2022-07-29T03:55:32;6.95;;;5.53;;
8423;SDS011;4249;49.072;9.770;2022-07-29T03:58:31;5.72;;;5.22;;
8423;SDS011;4249;49.072;9.770;2022-07-29T04:01:19;6.80;;;5.88;;
8423;SDS011;4249;49.072;9.770;2022-07-29T04:04:08;5.45;;;4.95;;
8423;SDS011;4249;49.072;9.770;2022-07-29T04:06:56;5.95;;;5.35;;
8423;SDS011;4249;49.072;9.770;2022-07-29T04:09:43;6.55;;;5.55;;
8423;SDS011;4249;49.072;9.770;2022-07-29T04:12:30;5.70;;;4.80;;
8423;SDS011;4249;49.072;9.770;2022-07-29T04:15:17;6.03;;;5.43;;
8423;SDS011;4249;49.072;9.770;2022-07-29T04:18:05;6.03;;;5.43;;
8423;SDS011;4249;49.072;9.770;2022-07-29T04:20:53;6.10;;;5.40;;
8423;SDS011;4249;49.072;9.770;2022-07-29T04:23:41;6.15;;;5.53;;
8423;SDS011;4249;49.072;9.770;2022-07-29T04:26:30;8.68;;;6.18;;
8423;SDS011;4249;49.072;9.770;2022-07-29T04:29:17;5.80;;;5.20;;
8423;SDS011;4249;49.072;9.770;2022-07-29T04:32:06;6.47;;;5.10;;
8423;SDS011;4249;49.072;9.770;2022-07-29T04:34:54;6.55;;;5.28;;
8423;SDS011;4249;49.072;9.770;2022-07-29T04:37:42;6.35;;;5.50;;
8423;SDS011;4249;49.072;9.770;2022-07-29T04:40:30;5.93;;;5.30;;
8423;SDS011;4249;49.072;9.770;2022-07-29T04:43:18;5.47;;;5.07;;
8423;SDS011;4249;49.072;9.770;2022-07-29T04:46:05;6.55;;;5.78;;
8423;SDS011;4249;49.072;9.770;2022-07-29T04:48:53;5.55;;;5.05;;
8423;SDS011;4249;49.072;9.770;2022-07-29T04:51:40;6.95;;;6.05;;
8423;SDS011;4249;49.072;9.770;2022-07-29T04:54:28;7.35;;;5.57;;
8423;SDS011;4249;49.072;9.770;2022-07-29T04:57:16;7.90;;;6.80;;
8423;SDS011;4249;49.072;9.770;2022-07-29T05:00:05;6.85;;;5.72;;
8423;SDS011;4249;49.072;9.770;2022-07-29T05:02:53;5.88;;;5.30;;
8423;SDS011;4249;49.072;9.770;2022-07-29T05:05:40;7.22;;;6.10;;
8423;SDS011;4249;49.072;9.770;2022-07-29T05:08:27;7.00;;;6.30;;
8423;SDS011;4249;49.072;9.770;2022-07-29T05:11:16;6.32;;;5.72;;
8423;SDS011;4249;49.072;9.770;2022-07-29T05:14:03;7.32;;;5.82;;
8423;SDS011;4249;49.072;9.770;2022-07-29T05:16:51;5.93;;;5.32;;
8423;SDS011;4249;49.072;9.770;2022-07-29T05:19:41;7.43;;;5.88;;
8423;SDS011;4249;49.072;9.770;2022-07-29T05:22:29;7.13;;;5.90;;
8423;SDS011;4249;49.072;9.770;2022-07-29T05:25:16;6.78;;;5.40;;
8423;SDS011;4249;49.072;9.770;2022-07-29T05:28:05;7.80;;;5.50;;
8423;SDS011;4249;49.072;9.770;2022-07-29T05:30:52;5.78;;;5.28;;
8423;SDS011;4249;49.072;9.770;2022-07-29T05:33:39;5.90;;;5.18;;
8423;SDS011;4249;49.072;9.770;2022-07-29T05:36:27;6.43;;;5.82;;
8423;SDS011;4249;49.072;9.770;2022-07-29T05:39:14;6.30;;;5.70;;
8423;SDS011;4249;49.072;9.770;2022-07-29T05:42:01;6.88;;;5.95;;
8423;SDS011;4249;49.072;9.770;2022-07-29T05:44:50;6.45;;;5.50;;
8423;SDS011;4249;49.072;9.770;2022-07-29T05:47:38;7.88;;;5.75;;
8423;SDS011;4249;49.072;9.770;2022-07-29T05:50:25;7.15;;;5.60;;
8423;SDS011;4249;49.072;9.770;2022-07-29T05:53:12;5.85;;;5.35;;
8423;SDS011;4249;49.072;9.770;2022-07-29T05:56:02;5.68;;;5.18;;
8423;SDS011;4249;49.072;9.770;2022-07-29T05:58:50;5.93;;;5.10;;
8423;SDS011;4249;49.072;9.770;2022-07-29T06:01:39;6.03;;;5.10;;
8423;SDS011;4249;49.072;9.770;2022-07-29T06:04:26;5.38;;;4.05;;
8423;SDS011;4249;49.072;9.770;2022-07-29T06:07:14;4.60;;;4.20;;
8423;SDS011;4249;49.072;9.770;2022-07-29T06:09:41;4.25;;;3.85;;
8423;SDS011;4249;49.072;9.770;2022-07-29T06:12:08;4.70;;;4.30;;
8423;SDS011;4249;49.072;9.770;2022-07-29T06:14:35;3.80;;;3.47;;
8423;SDS011;4249;49.072;9.770;2022-07-29T06:17:05;5.57;;;4.20;;
8423;SDS011;4249;49.072;9.770;2022-07-29T06:19:33;4.38;;;3.97;;
8423;SDS011;4249;49.072;9.770;2022-07-29T06:22:01;3.67;;;3.38;;
8423;SDS011;4249;49.072;9.770;2022-07-29T06:24:47;6.03;;;3.78;;
8423;SDS011;4249;49.072;9.770;2022-07-29T06:27:34;4.65;;;4.00;;
8423;SDS011;4249;49.072;9.770;2022-07-29T06:30:21;4.25;;;3.80;;
8423;SDS011;4249;49.072;9.770;2022-07-29T06:33:14;4.07;;;3.75;;
8423;SDS011;4249;49.072;9.770;2022-07-29T06:36:03;4.30;;;3.90;;
8423;SDS011;4249;49.072;9.770;2022-07-29T06:38:51;7.43;;;4.25;;
8423;SDS011;4249;49.072;9.770;2022-07-29T06:41:38;4.70;;;3.83;;
8423;SDS011;4249;49.072;9.770;2022-07-29T06:44:25;6.60;;;3.80;;
8423;SDS011;4249;49.072;9.770;2022-07-29T06:47:13;6.53;;;3.90;;
8423;SDS011;4249;49.072;9.770;2022-07-29T06:50:01;8.52;;;4.30;;
8423;SDS011;4249;49.072;9.770;2022-07-29T06:52:49;7.57;;;4.40;;
8423;SDS011;4249;49.072;9.770;2022-07-29T06:55:36;7.85;;;4.38;;
8423;SDS011;4249;49.072;9.770;2022-07-29T06:58:23;9.73;;;4.22;;
8423;SDS011;4249;49.072;9.770;2022-07-29T07:01:11;7.20;;;4.07;;
8423;SDS011;4249;49.072;9.770;2022-07-29T07:03:58;6.13;;;4.20;;
8423;SDS011;4249;49.072;9.770;2022-07-29T07:06:46;6.47;;;3.72;;
8423;SDS011;4249;49.072;9.770;2022-07-29T07:09:34;3.60;;;3.30;;
8423;SDS011;4249;49.072;9.770;2022-07-29T07:12:21;7.72;;;3.78;;
8423;SDS011;4249;49.072;9.770;2022-07-29T07:15:09;5.68;;;3.60;;
8423;SDS011;4249;49.072;9.770;2022-07-29T07:17:56;5.15;;;3.08;;
8423;SDS011;4249;49.072;9.770;2022-07-29T07:20:44;4.13;;;3.67;;
8423;SDS011;4249;49.072;9.770;2022-07-29T07:23:33;6.30;;;3.60;;
8423;SDS011;4249;49.072;9.770;2022-07-29T07:26:20;4.30;;;3.55;;
8423;SDS011;4249;49.072;9.770;2022-07-29T07:29:07;3.70;;;3.40;;
8423;SDS011;4249;49.072;9.770;2022-07-29T07:31:54;4.97;;;3.40;;
8423;SDS011;4249;49.072;9.770;2022-07-29T07:34:42;3.50;;;3.20;;
8423;SDS011;4249;49.072;9.770;2022-07-29T07:37:30;3.97;;;3.67;;
8423;SDS011;4249;49.072;9.770;2022-07-29T07:40:18;5.13;;;3.17;;
8423;SDS011;4249;49.072;9.770;2022-07-29T07:42:45;3.58;;;3.25;;
8423;SDS011;4249;49.072;9.770;2022-07-29T07:45:12;3.80;;;3.30;;
8423;SDS011;4249;49.072;9.770;2022-07-29T07:47:39;4.93;;;3.03;;
8423;SDS011;4249;49.072;9.770;2022-07-29T07:50:07;3.53;;;3.22;;
8423;SDS011;4249;49.072;9.770;2022-07-29T07:52:36;3.47;;;2.92;;
8423;SDS011;4249;49.072;9.770;2022-07-29T07:55:12;3.45;;;3.08;;
8423;SDS011;4249;49.072;9.770;2022-07-29T07:57:41;2.80;;;2.47;;
8423;SDS011;4249;49.072;9.770;2022-07-29T08:00:08;3.25;;;2.67;;
8423;SDS011;4249;49.072;9.770;2022-07-29T08:02:36;2.90;;;2.50;;
8423;SDS011;4249;49.072;9.770;2022-07-29T08:05:04;3.17;;;2.95;;
8423;SDS011;4249;49.072;9.770;2022-07-29T08:07:31;3.30;;;2.97;;
8423;SDS011;4249;49.072;9.770;2022-07-29T08:09:58;3.78;;;3.00;;
8423;SDS011;4249;49.072;9.770;2022-07-29T08:12:25;3.30;;;3.00;;
8423;SDS011;4249;49.072;9.770;2022-07-29T08:14:53;3.53;;;3.22;;
8423;SDS011;4249;49.072;9.770;2022-07-29T08:17:20;4.40;;;3.38;;
8423;SDS011;4249;49.072;9.770;2022-07-29T08:19:47;3.55;;;3.22;;
8423;SDS011;4249;49.072;9.770;2022-07-29T08:22:14;4.90;;;3.40;;
8423;SDS011;4249;49.072;9.770;2022-07-29T08:24:41;4.50;;;3.55;;
8423;SDS011;4249;49.072;9.770;2022-07-29T08:27:17;3.90;;;3.50;;
8423;SDS011;4249;49.072;9.770;2022-07-29T08:29:45;4.60;;;3.78;;
8423;SDS011;4249;49.072;9.770;2022-07-29T08:32:14;4.97;;;3.30;;
8423;SDS011;4249;49.072;9.770;2022-07-29T08:34:41;4.85;;;3.45;;
8423;SDS011;4249;49.072;9.770;2022-07-29T08:37:09;3.80;;;3.40;;
8423;SDS011;4249;49.072;9.770;2022-07-29T08:39:37;3.78;;;3.47;;
8423;SDS011;4249;49.072;9.770;2022-07-29T08:42:05;3.28;;;2.97;;
8423;SDS011;4249;49.072;9.770;2022-07-29T08:44:32;3.63;;;3.20;;
8423;SDS011;4249;49.072;9.770;2022-07-29T08:47:00;3.75;;;3.45;;
8423;SDS011;4249;49.072;9.770;2022-07-29T08:49:29;3.63;;;3.33;;
8423;SDS011;4249;49.072;9.770;2022-07-29T08:51:55;4.82;;;2.85;;
8423;SDS011;4249;49.072;9.770;2022-07-29T08:54:24;2.85;;;2.60;;
8423;SDS011;4249;49.072;9.770;2022-07-29T08:56:51;3.90;;;3.20;;
8423;SDS011;4249;49.072;9.770;2022-07-29T08:59:19;3.08;;;2.60;;
8423;SDS011;4249;49.072;9.770;2022-07-29T09:01:48;3.17;;;2.88;;
8423;SDS011;4249;49.072;9.770;2022-07-29T09:04:38;3.40;;;2.97;;
8423;SDS011;4249;49.072;9.770;2022-07-29T09:07:28;3.10;;;2.80;;
8423;SDS011;4249;49.072;9.770;2022-07-29T09:10:15;3.97;;;3.17;;
8423;SDS011;4249;49.072;9.770;2022-07-29T09:13:02;3.53;;;3.22;;
8423;SDS011;4249;49.072;9.770;2022-07-29T09:15:50;4.38;;;3.17;;
8423;SDS011;4249;49.072;9.770;2022-07-29T09:18:38;3.40;;;3.00;;
8423;SDS011;4249;49.072;9.770;2022-07-29T09:21:27;3.40;;;3.10;;
8423;SDS011;4249;49.072;9.770;2022-07-29T09:24:45;3.95;;;3.28;;
8423;SDS011;4249;49.072;9.770;2022-07-29T09:27:33;3.95;;;3.17;;
8423;SDS011;4249;49.072;9.770;2022-07-29T09:30:21;3.90;;;3.38;;
8423;SDS011;4249;49.072;9.770;2022-07-29T09:33:08;3.80;;;3.03;;
8423;SDS011;4249;49.072;9.770;2022-07-29T09:36:00;4.63;;;3.15;;
8423;SDS011;4249;49.072;9.770;2022-07-29T09:38:57;3.67;;;3.38;;
8423;SDS011;4249;49.072;9.770;2022-07-29T09:41:46;3.67;;;3.05;;
8423;SDS011;4249;49.072;9.770;2022-07-29T09:44:41;4.13;;;3.42;;
8423;SDS011;4249;49.072;9.770;2022-07-29T09:47:40;3.08;;;2.83;;
8423;SDS011;4249;49.072;9.770;2022-07-29T09:50:37;2.88;;;2.67;;
8423;SDS011;4249;49.072;9.770;2022-07-29T09:53:31;3.67;;;3.10;;
8423;SDS011;4249;49.072;9.770;2022-07-29T09:56:21;4.25;;;3.25;;
8423;SDS011;4249;49.072;9.770;2022-07-29T09:59:24;3.85;;;2.80;;
8423;SDS011;4249;49.072;9.770;2022-07-29T10:02:13;4.80;;;3.10;;
8423;SDS011;4249;49.072;9.770;2022-07-29T10:05:02;3.83;;;3.40;;
8423;SDS011;4249;49.072;9.770;2022-07-29T10:07:52;4.65;;;3.20;;
8423;SDS011;4249;49.072;9.770;2022-07-29T10:10:40;3.95;;;3.00;;
8423;SDS011;4249;49.072;9.770;2022-07-29T10:13:30;5.18;;;3.33;;
8423;SDS011;4249;49.072;9.770;2022-07-29T10:16:18;4.28;;;3.47;;
8423;SDS011;4249;49.072;9.770;2022-07-29T10:19:05;3.80;;;3.40;;
8423;SDS011;4249;49.072;9.770;2022-07-29T10:21:52;3.58;;;3.28;;
8423;SDS011;4249;49.072;9.770;2022-07-29T10:24:39;4.93;;;3.55;;
8423;SDS011;4249;49.072;9.770;2022-07-29T10:27:27;3.80;;;3.40;;
8423;SDS011;4249;49.072;9.770;2022-07-29T10:30:15;6.90;;;3.92;;
8423;SDS011;4249;49.072;9.770;2022-07-29T10:33:09;3.97;;;3.50;;
8423;SDS011;4249;49.072;9.770;2022-07-29T10:36:23;3.72;;;3.42;;
8423;SDS011;4249;49.072;9.770;2022-07-29T10:39:22;4.45;;;3.63;;
8423;SDS011;4249;49.072;9.770;2022-07-29T10:42:19;4.35;;;3.97;;
8423;SDS011;4249;49.072;9.770;2022-07-29T10:45:09;4.55;;;3.88;;
8423;SDS011;4249;49.072;9.770;2022-07-29T10:48:04;5.53;;;3.40;;
8423;SDS011;4249;49.072;9.770;2022-07-29T10:50:52;4.07;;;3.55;;
8423;SDS011;4249;49.072;9.770;2022-07-29T10:53:47;4.03;;;3.67;;
8423;SDS011;4249;49.072;9.770;2022-07-29T10:56:36;3.78;;;3.47;;
8423;SDS011;4249;49.072;9.770;2022-07-29T10:59:23;4.72;;;3.97;;
8423;SDS011;4249;49.072;9.770;2022-07-29T11:05:54;4.00;;;3.70;;
8423;SDS011;4249;49.072;9.770;2022-07-29T11:08:42;4.53;;;4.13;;
8423;SDS011;4249;49.072;9.770;2022-07-29T11:11:30;4.15;;;3.33;;
8423;SDS011;4249;49.072;9.770;2022-07-29T11:14:18;6.57;;;3.80;;
8423;SDS011;4249;49.072;9.770;2022-07-29T11:17:26;4.85;;;3.95;;
8423;SDS011;4249;49.072;9.770;2022-07-29T11:23:23;4.05;;;3.65;;
8423;SDS011;4249;49.072;9.770;2022-07-29T11:26:13;4.40;;;3.97;;
8423;SDS011;4249;49.072;9.770;2022-07-29T11:29:02;4.60;;;4.20;;
8423;SDS011;4249;49.072;9.770;2022-07-29T11:31:52;4.70;;;4.10;;
8423;SDS011;4249;49.072;9.770;2022-07-29T11:34:40;3.90;;;3.60;;
8423;SDS011;4249;49.072;9.770;2022-07-29T11:37:28;3.65;;;3.35;;
8423;SDS011;4249;49.072;9.770;2022-07-29T11:40:17;4.35;;;3.88;;
8423;SDS011;4249;49.072;9.770;2022-07-29T11:43:05;4.60;;;3.90;;
8423;SDS011;4249;49.072;9.770;2022-07-29T11:45:52;9.77;;;3.92;;
8423;SDS011;4249;49.072;9.770;2022-07-29T11:48:41;4.45;;;3.97;;
8423;SDS011;4249;49.072;9.770;2022-07-29T11:51:29;5.88;;;3.90;;
8423;SDS011;4249;49.072;9.770;2022-07-29T11:54:16;4.78;;;3.67;;
8423;SDS011;4249;49.072;9.770;2022-07-29T11:57:12;5.75;;;3.80;;
8423;SDS011;4249;49.072;9.770;2022-07-29T12:00:01;4.07;;;3.78;;
8423;SDS011;4249;49.072;9.770;2022-07-29T12:02:49;5.97;;;4.03;;
8423;SDS011;4249;49.072;9.770;2022-07-29T12:05:38;4.05;;;3.65;;
8423;SDS011;4249;49.072;9.770;2022-07-29T12:08:26;4.85;;;4.22;;
8423;SDS011;4249;49.072;9.770;2022-07-29T12:11:17;4.70;;;4.25;;
8423;SDS011;4249;49.072;9.770;2022-07-29T12:14:06;5.55;;;4.25;;
8423;SDS011;4249;49.072;9.770;2022-07-29T12:16:53;5.00;;;4.25;;
8423;SDS011;4249;49.072;9.770;2022-07-29T12:19:41;6.15;;;4.60;;
8423;SDS011;4249;49.072;9.770;2022-07-29T12:22:31;6.10;;;4.32;;
8423;SDS011;4249;49.072;9.770;2022-07-29T12:25:19;5.07;;;4.57;;
8423;SDS011;4249;49.072;9.770;2022-07-29T12:28:08;4.78;;;4.30;;
8423;SDS011;4249;49.072;9.770;2022-07-29T12:30:59;5.00;;;4.45;;
8423;SDS011;4249;49.072;9.770;2022-07-29T12:33:51;5.65;;;4.50;;
8423;SDS011;4249;49.072;9.770;2022-07-29T12:36:40;5.47;;;4.43;;
8423;SDS011;4249;49.072;9.770;2022-07-29T12:39:28;8.98;;;5.13;;
8423;SDS011;4249;49.072;9.770;2022-07-29T12:42:15;4.95;;;4.45;;
8423;SDS011;4249;49.072;9.770;2022-07-29T12:45:04;5.85;;;4.88;;
8423;SDS011;4249;49.072;9.770;2022-07-29T12:47:53;6.07;;;4.55;;
8423;SDS011;4249;49.072;9.770;2022-07-29T12:50:56;4.65;;;4.10;;
8423;SDS011;4249;49.072;9.770;2022-07-29T12:56:58;4.70;;;4.22;;
8423;SDS011;4249;49.072;9.770;2022-07-29T12:59:58;5.00;;;4.60;;
8423;SDS011;4249;49.072;9.770;2022-07-29T13:02:55;5.65;;;4.60;;
8423;SDS011;4249;49.072;9.770;2022-07-29T13:05:44;7.63;;;5.00;;
8423;SDS011;4249;49.072;9.770;2022-07-29T13:08:32;6.60;;;4.47;;
8423;SDS011;4249;49.072;9.770;2022-07-29T13:11:30;6.47;;;4.63;;
8423;SDS011;4249;49.072;9.770;2022-07-29T13:14:29;5.70;;;4.68;;
8423;SDS011;4249;49.072;9.770;2022-07-29T13:17:18;5.17;;;4.67;;
8423;SDS011;4249;49.072;9.770;2022-07-29T13:20:09;4.35;;;3.95;;
8423;SDS011;4249;49.072;9.770;2022-07-29T13:22:59;4.80;;;4.40;;
8423;SDS011;4249;49.072;9.770;2022-07-29T13:25:47;6.82;;;4.95;;
8423;SDS011;4249;49.072;9.770;2022-07-29T13:28:34;6.30;;;4.15;;
8423;SDS011;4249;49.072;9.770;2022-07-29T13:31:22;4.30;;;3.90;;
8423;SDS011;4249;49.072;9.770;2022-07-29T13:34:09;6.28;;;3.78;;
8423;SDS011;4249;49.072;9.770;2022-07-29T13:36:58;4.20;;;3.70;;
8423;SDS011;4249;49.072;9.770;2022-07-29T13:39:45;4.15;;;3.70;;
8423;SDS011;4249;49.072;9.770;2022-07-29T13:42:34;4.05;;;3.25;;
8423;SDS011;4249;49.072;9.770;2022-07-29T13:45:21;5.82;;;4.10;;
8423;SDS011;4249;49.072;9.770;2022-07-29T13:48:09;3.03;;;2.83;;
8423;SDS011;4249;49.072;9.770;2022-07-29T13:50:56;5.05;;;3.42;;
8423;SDS011;4249;49.072;9.770;2022-07-29T13:53:45;4.70;;;3.70;;
8423;SDS011;4249;49.072;9.770;2022-07-29T13:56:32;4.05;;;3.65;;
8423;SDS011;4249;49.072;9.770;2022-07-29T13:59:19;3.92;;;3.58;;
8423;SDS011;4249;49.072;9.770;2022-07-29T14:02:06;3.35;;;2.97;;
8423;SDS011;4249;49.072;9.770;2022-07-29T14:04:55;3.95;;;3.00;;
8423;SDS011;4249;49.072;9.770;2022-07-29T14:07:42;4.63;;;3.28;;
8423;SDS011;4249;49.072;9.770;2022-07-29T14:10:31;2.78;;;2.53;;
8423;SDS011;4249;49.072;9.770;2022-07-29T14:13:18;4.18;;;2.58;;
8423;SDS011;4249;49.072;9.770;2022-07-29T14:16:05;3.00;;;2.80;;
8423;SDS011;4249;49.072;9.770;2022-07-29T14:18:53;2.70;;;2.50;;
8423;SDS011;4249;49.072;9.770;2022-07-29T14:21:41;3.22;;;2.75;;
8423;SDS011;4249;49.072;9.770;2022-07-29T14:24:28;4.35;;;2.80;;
8423;SDS011;4249;49.072;9.770;2022-07-29T14:27:17;3.25;;;2.83;;
8423;SDS011;4249;49.072;9.770;2022-07-29T14:30:04;4.13;;;2.65;;
8423;SDS011;4249;49.072;9.770;2022-07-29T14:32:52;3.95;;;2.92;;
8423;SDS011;4249;49.072;9.770;2022-07-29T14:35:40;3.00;;;2.80;;
8423;SDS011;4249;49.072;9.770;2022-07-29T14:38:27;2.70;;;2.50;;
8423;SDS011;4249;49.072;9.770;2022-07-29T14:41:14;3.38;;;2.72;;
8423;SDS011;4249;49.072;9.770;2022-07-29T14:44:03;2.75;;;2.55;;
8423;SDS011;4249;49.072;9.770;2022-07-29T14:46:50;3.25;;;2.45;;
8423;SDS011;4249;49.072;9.770;2022-07-29T14:49:37;3.90;;;2.63;;
8423;SDS011;4249;49.072;9.770;2022-07-29T14:52:25;3.20;;;2.90;;
8423;SDS011;4249;49.072;9.770;2022-07-29T14:55:12;3.42;;;3.13;;
8423;SDS011;4249;49.072;9.770;2022-07-29T14:57:59;3.28;;;2.80;;
8423;SDS011;4249;49.072;9.770;2022-07-29T15:00:48;3.90;;;3.00;;
8423;SDS011;4249;49.072;9.770;2022-07-29T15:03:35;3.00;;;2.72;;
8423;SDS011;4249;49.072;9.770;2022-07-29T15:06:22;3.38;;;3.08;;
8423;SDS011;4249;49.072;9.770;2022-07-29T15:09:09;3.15;;;2.90;;
8423;SDS011;4249;49.072;9.770;2022-07-29T15:11:57;3.60;;;3.30;;
8423;SDS011;4249;49.072;9.770;2022-07-29T15:14:44;3.47;;;3.00;;
8423;SDS011;4249;49.072;9.770;2022-07-29T15:17:33;3.45;;;3.15;;
8423;SDS011;4249;49.072;9.770;2022-07-29T15:20:20;4.15;;;3.38;;
8423;SDS011;4249;49.072;9.770;2022-07-29T15:23:10;3.40;;;2.88;;
8423;SDS011;4249;49.072;9.770;2022-07-29T15:25:58;5.35;;;2.90;;
8423;SDS011;4249;49.072;9.770;2022-07-29T15:28:45;3.25;;;2.95;;
8423;SDS011;4249;49.072;9.770;2022-07-29T15:31:33;4.25;;;3.28;;
8423;SDS011;4249;49.072;9.770;2022-07-29T15:34:21;4.03;;;3.42;;
8423;SDS011;4249;49.072;9.770;2022-07-29T15:37:09;4.20;;;3.40;;
8423;SDS011;4249;49.072;9.770;2022-07-29T15:39:56;3.60;;;3.30;;
8423;SDS011;4249;49.072;9.770;2022-07-29T15:42:44;5.05;;;3.45;;
8423;SDS011;4249;49.072;9.770;2022-07-29T15:45:34;5.28;;;3.10;;
8423;SDS011;4249;49.072;9.770;2022-07-29T15:48:22;5.10;;;3.10;;
8423;SDS011;4249;49.072;9.770;2022-07-29T15:51:11;4.30;;;3.42;;
8423;SDS011;4249;49.072;9.770;2022-07-29T15:53:58;4.03;;;3.35;;
8423;SDS011;4249;49.072;9.770;2022-07-29T15:56:47;4.70;;;3.22;;
8423;SDS011;4249;49.072;9.770;2022-07-29T15:59:34;4.50;;;3.70;;
8423;SDS011;4249;49.072;9.770;2022-07-29T16:02:21;7.15;;;3.60;;
8423;SDS011;4249;49.072;9.770;2022-07-29T16:05:08;5.55;;;3.20;;
8423;SDS011;4249;49.072;9.770;2022-07-29T16:07:57;4.07;;;3.10;;
8423;SDS011;4249;49.072;9.770;2022-07-29T16:10:45;4.32;;;3.28;;
8423;SDS011;4249;49.072;9.770;2022-07-29T16:13:32;3.42;;;3.05;;
8423;SDS011;4249;49.072;9.770;2022-07-29T16:16:19;5.07;;;3.45;;
8423;SDS011;4249;49.072;9.770;2022-07-29T16:19:06;3.97;;;3.35;;
8423;SDS011;4249;49.072;9.770;2022-07-29T16:21:54;4.70;;;3.40;;
8423;SDS011;4249;49.072;9.770;2022-07-29T16:24:43;4.63;;;3.13;;
8423;SDS011;4249;49.072;9.770;2022-07-29T16:27:30;5.15;;;3.15;;
8423;SDS011;4249;49.072;9.770;2022-07-29T16:30:17;2.88;;;2.58;;
8423;SDS011;4249;49.072;9.770;2022-07-29T16:33:05;3.42;;;2.85;;
8423;SDS011;4249;49.072;9.770;2022-07-29T16:35:52;5.07;;;2.90;;
8423;SDS011;4249;49.072;9.770;2022-07-29T16:38:40;3.08;;;2.78;;
8423;SDS011;4249;49.072;9.770;2022-07-29T16:41:28;2.80;;;2.60;;
8423;SDS011;4249;49.072;9.770;2022-07-29T16:44:15;3.10;;;2.70;;
8423;SDS011;4249;49.072;9.770;2022-07-29T16:47:03;4.05;;;3.50;;
8423;SDS011;4249;49.072;9.770;2022-07-29T16:49:50;3.13;;;2.80;;
8423;SDS011;4249;49.072;9.770;2022-07-29T16:52:37;3.45;;;2.90;;
8423;SDS011;4249;49.072;9.770;2022-07-29T16:55:25;2.83;;;2.63;;
8423;SDS011;4249;49.072;9.770;2022-07-29T16:58:13;2.65;;;2.45;;
8423;SDS011;4249;49.072;9.770;2022-07-29T17:01:01;3.08;;;2.70;;
8423;SDS011;4249;49.072;9.770;2022-07-29T17:03:48;2.80;;;2.28;;
8423;SDS011;4249;49.072;9.770;2022-07-29T17:06:53;3.55;;;2.70;;
8423;SDS011;4249;49.072;9.770;2022-07-29T17:09:41;3.22;;;2.92;;
8423;SDS011;4249;49.072;9.770;2022-07-29T17:12:28;3.53;;;2.70;;
8423;SDS011;4249;49.072;9.770;2022-07-29T17:15:17;3.15;;;2.50;;
8423;SDS011;4249;49.072;9.770;2022-07-29T17:18:04;2.92;;;2.72;;
8423;SDS011;4249;49.072;9.770;2022-07-29T17:20:53;2.90;;;2.65;;
8423;SDS011;4249;49.072;9.770;2022-07-29T17:23:40;2.67;;;2.33;;
8423;SDS011;4249;49.072;9.770;2022-07-29T17:26:27;3.15;;;2.85;;